sensor_id;sensor_type;location;lat;lon;timestamp;pressure;altitude;pressure_sealevel;temperature;humidity
64298;BME280;50639;53.270;7.956;2024-03-02T00:02:24;100244.50;;;6.46;91.22
64298;BME280;50639;53.270;7.956;2024-03-02T00:04:50;100251.31;;;6.47;91.83
64298;BME280;50639;53.270;7.956;2024-03-02T00:07:16;100244.78;;;6.41;91.60
64298;BME280;50639;53.270;7.956;2024-03-02T00:09:43;100247.50;;;6.38;91.61
64298;BME280;50639;53.270;7.956;2024-03-02T00:12:11;100237.28;;;6.37;91.89
64298;BME280;50639;53.270;7.956;2024-03-02T00:14:41;100236.94;;;6.27;92.24
64298;BME280;50639;53.270;7.956;2024-03-02T00:17:17;100235.13;;;6.29;91.77
64298;BME280;50639;53.270;7.956;2024-03-02T00:19:47;100228.22;;;6.30;91.51
64298;BME280;50639;53.270;7.956;2024-03-02T00:22:12;100231.78;;;6.27;91.75
64298;BME280;50639;53.270;7.956;2024-03-02T00:24:39;100229.97;;;6.29;91.36
64298;BME280;50639;53.270;7.956;2024-03-02T00:27:05;100229.22;;;6.27;92.06
64298;BME280;50639;53.270;7.956;2024-03-02T00:29:32;100232.69;;;6.26;91.33
64298;BME280;50639;53.270;7.956;2024-03-02T00:32:00;100215.25;;;6.16;91.97
64298;BME280;50639;53.270;7.956;2024-03-02T00:34:26;100225.69;;;6.13;92.25
64298;BME280;50639;53.270;7.956;2024-03-02T00:36:51;100214.72;;;6.09;92.33
64298;BME280;50639;53.270;7.956;2024-03-02T00:39:17;100214.91;;;6.06;92.45
64298;BME280;50639;53.270;7.956;2024-03-02T00:41:43;100214.97;;;6.04;92.11
64298;BME280;50639;53.270;7.956;2024-03-02T00:44:12;100213.25;;;6.05;92.37
64298;BME280;50639;53.270;7.956;2024-03-02T00:46:39;100215.75;;;6.07;92.17
64298;BME280;50639;53.270;7.956;2024-03-02T00:49:24;100213.53;;;5.99;92.88
64298;BME280;50639;53.270;7.956;2024-03-02T00:51:52;100215.06;;;6.03;92.02
64298;BME280;50639;53.270;7.956;2024-03-02T00:54:27;100212.06;;;5.95;92.72
64298;BME280;50639;53.270;7.956;2024-03-02T00:56:54;100211.16;;;5.96;92.71
64298;BME280;50639;53.270;7.956;2024-03-02T00:59:21;100212.56;;;6.01;92.25
64298;BME280;50639;53.270;7.956;2024-03-02T01:01:48;100204.09;;;5.99;91.95
64298;BME280;50639;53.270;7.956;2024-03-02T01:04:14;100211.22;;;5.94;92.86
64298;BME280;50639;53.270;7.956;2024-03-02T01:06:39;100207.56;;;5.98;92.65
64298;BME280;50639;53.270;7.956;2024-03-02T01:09:06;100199.78;;;6.00;92.47
64298;BME280;50639;53.270;7.956;2024-03-02T01:11:31;100205.09;;;5.97;92.14
64298;BME280;50639;53.270;7.956;2024-03-02T01:13:57;100206.75;;;5.98;92.22
64298;BME280;50639;53.270;7.956;2024-03-02T01:16:22;100196.47;;;5.98;92.00
64298;BME280;50639;53.270;7.956;2024-03-02T01:18:48;100200.63;;;6.00;92.22
64298;BME280;50639;53.270;7.956;2024-03-02T01:21:15;100203.25;;;5.99;91.68
64298;BME280;50639;53.270;7.956;2024-03-02T01:23:40;100202.91;;;5.89;92.07
64298;BME280;50639;53.270;7.956;2024-03-02T01:26:06;100196.00;;;5.90;91.61
64298;BME280;50639;53.270;7.956;2024-03-02T01:28:32;100198.38;;;5.94;92.12
64298;BME280;50639;53.270;7.956;2024-03-02T01:30:58;100196.63;;;5.95;91.59
64298;BME280;50639;53.270;7.956;2024-03-02T01:33:23;100191.94;;;5.86;92.04
64298;BME280;50639;53.270;7.956;2024-03-02T01:35:48;100194.66;;;5.83;91.76
64298;BME280;50639;53.270;7.956;2024-03-02T01:38:14;100191.25;;;5.82;91.84
64298;BME280;50639;53.270;7.956;2024-03-02T01:40:39;100178.63;;;5.78;92.52
64298;BME280;50639;53.270;7.956;2024-03-02T01:43:05;100187.25;;;5.77;92.24
64298;BME280;50639;53.270;7.956;2024-03-02T01:45:31;100182.03;;;5.78;92.30
64298;BME280;50639;53.270;7.956;2024-03-02T01:47:57;100186.41;;;5.76;92.48
64298;BME280;50639;53.270;7.956;2024-03-02T01:50:31;100177.75;;;5.79;92.50
64298;BME280;50639;53.270;7.956;2024-03-02T01:52:56;100183.03;;;5.76;92.04
64298;BME280;50639;53.270;7.956;2024-03-02T01:55:22;100174.25;;;5.80;92.27
64298;BME280;50639;53.270;7.956;2024-03-02T01:57:49;100167.28;;;5.82;92.16
64298;BME280;50639;53.270;7.956;2024-03-02T02:00:16;100166.44;;;5.81;91.93
64298;BME280;50639;53.270;7.956;2024-03-02T02:02:42;100165.72;;;5.79;92.01
64298;BME280;50639;53.270;7.956;2024-03-02T02:05:07;100169.41;;;5.74;91.62
64298;BME280;50639;53.270;7.956;2024-03-02T02:07:33;100155.66;;;5.75;91.92
64298;BME280;50639;53.270;7.956;2024-03-02T02:10:00;100160.97;;;5.72;91.66
64298;BME280;50639;53.270;7.956;2024-03-02T02:12:26;100158.63;;;5.67;91.63
64298;BME280;50639;53.270;7.956;2024-03-02T02:14:52;100163.31;;;5.59;91.88
64298;BME280;50639;53.270;7.956;2024-03-02T02:17:17;100143.69;;;5.58;92.22
64298;BME280;50639;53.270;7.956;2024-03-02T02:19:43;100149.50;;;5.61;92.03
64298;BME280;50639;53.270;7.956;2024-03-02T02:22:09;100143.00;;;5.54;91.91
64298;BME280;50639;53.270;7.956;2024-03-02T02:24:35;100138.63;;;5.56;92.11
64298;BME280;50639;53.270;7.956;2024-03-02T02:27:00;100135.13;;;5.57;91.65
64298;BME280;50639;53.270;7.956;2024-03-02T02:29:26;100131.66;;;5.58;92.16
64298;BME280;50639;53.270;7.956;2024-03-02T02:31:52;100127.50;;;5.56;91.86
64298;BME280;50639;53.270;7.956;2024-03-02T02:34:18;100124.28;;;5.52;92.04
64298;BME280;50639;53.270;7.956;2024-03-02T02:36:43;100127.75;;;5.51;92.26
64298;BME280;50639;53.270;7.956;2024-03-02T02:39:11;100124.56;;;5.46;92.97
64298;BME280;50639;53.270;7.956;2024-03-02T02:41:38;100124.81;;;5.42;92.57
64298;BME280;50639;53.270;7.956;2024-03-02T02:44:04;100121.16;;;5.46;92.69
64298;BME280;50639;53.270;7.956;2024-03-02T02:46:29;100111.59;;;5.49;92.43
64298;BME280;50639;53.270;7.956;2024-03-02T02:48:55;100104.97;;;5.45;92.28
64298;BME280;50639;53.270;7.956;2024-03-02T02:51:20;100112.56;;;5.47;92.29
64298;BME280;50639;53.270;7.956;2024-03-02T02:53:46;100109.09;;;5.48;92.18
64298;BME280;50639;53.270;7.956;2024-03-02T02:56:11;100107.03;;;5.54;92.22
64298;BME280;50639;53.270;7.956;2024-03-02T02:58:37;100104.56;;;5.53;91.69
64298;BME280;50639;53.270;7.956;2024-03-02T03:01:03;100096.69;;;5.56;92.68
64298;BME280;50639;53.270;7.956;2024-03-02T03:03:29;100101.81;;;5.56;92.66
64298;BME280;50639;53.270;7.956;2024-03-02T03:05:54;100100.00;;;5.58;92.45
64298;BME280;50639;53.270;7.956;2024-03-02T03:08:20;100086.59;;;5.53;92.25
64298;BME280;50639;53.270;7.956;2024-03-02T03:10:45;100071.69;;;5.59;92.09
64298;BME280;50639;53.270;7.956;2024-03-02T03:13:11;100077.81;;;5.57;91.84
64298;BME280;50639;53.270;7.956;2024-03-02T03:15:37;100071.19;;;5.53;92.53
64298;BME280;50639;53.270;7.956;2024-03-02T03:18:05;100078.31;;;5.63;92.65
64298;BME280;50639;53.270;7.956;2024-03-02T03:20:32;100093.00;;;5.61;92.54
64298;BME280;50639;53.270;7.956;2024-03-02T03:22:59;100087.94;;;5.60;92.16
64298;BME280;50639;53.270;7.956;2024-03-02T03:25:24;100088.97;;;5.56;92.87
64298;BME280;50639;53.270;7.956;2024-03-02T03:27:50;100084.75;;;5.55;92.23
64298;BME280;50639;53.270;7.956;2024-03-02T03:30:17;100085.69;;;5.54;92.76
64298;BME280;50639;53.270;7.956;2024-03-02T03:32:43;100094.50;;;5.48;92.86
64298;BME280;50639;53.270;7.956;2024-03-02T03:35:08;100097.00;;;5.50;92.20
64298;BME280;50639;53.270;7.956;2024-03-02T03:37:34;100092.84;;;5.47;93.00
64298;BME280;50639;53.270;7.956;2024-03-02T03:40:00;100098.06;;;5.46;92.99
64298;BME280;50639;53.270;7.956;2024-03-02T03:42:26;100105.94;;;5.43;93.29
64298;BME280;50639;53.270;7.956;2024-03-02T03:44:52;100099.06;;;5.43;92.56
64298;BME280;50639;53.270;7.956;2024-03-02T03:47:17;100097.25;;;5.45;92.10
64298;BME280;50639;53.270;7.956;2024-03-02T03:49:43;100099.66;;;5.48;92.33
64298;BME280;50639;53.270;7.956;2024-03-02T03:52:08;100102.28;;;5.47;92.81
64298;BME280;50639;53.270;7.956;2024-03-02T03:54:33;100104.41;;;5.39;92.81
64298;BME280;50639;53.270;7.956;2024-03-02T03:56:59;100106.09;;;5.40;92.63
64298;BME280;50639;53.270;7.956;2024-03-02T03:59:24;100115.38;;;5.42;92.88
64298;BME280;50639;53.270;7.956;2024-03-02T04:01:50;100115.53;;;5.39;93.34
64298;BME280;50639;53.270;7.956;2024-03-02T04:04:15;100111.91;;;5.43;92.81
64298;BME280;50639;53.270;7.956;2024-03-02T04:06:41;100116.28;;;5.41;93.25
64298;BME280;50639;53.270;7.956;2024-03-02T04:09:06;100118.78;;;5.43;93.13
64298;BME280;50639;53.270;7.956;2024-03-02T04:11:32;100118.09;;;5.39;92.95
64298;BME280;50639;53.270;7.956;2024-03-02T04:13:58;100122.25;;;5.42;93.46
64298;BME280;50639;53.270;7.956;2024-03-02T04:16:23;100113.78;;;5.40;92.84
64298;BME280;50639;53.270;7.956;2024-03-02T04:18:49;100120.84;;;5.36;93.25
64298;BME280;50639;53.270;7.956;2024-03-02T04:21:14;100120.91;;;5.35;92.74
64298;BME280;50639;53.270;7.956;2024-03-02T04:23:39;100117.31;;;5.37;93.49
64298;BME280;50639;53.270;7.956;2024-03-02T04:26:05;100117.31;;;5.37;92.91
64298;BME280;50639;53.270;7.956;2024-03-02T04:28:30;100120.84;;;5.36;93.14
64298;BME280;50639;53.270;7.956;2024-03-02T04:30:56;100122.56;;;5.36;93.19
64298;BME280;50639;53.270;7.956;2024-03-02T04:33:21;100132.16;;;5.32;93.76
64298;BME280;50639;53.270;7.956;2024-03-02T04:35:46;100133.75;;;5.35;93.96
64298;BME280;50639;53.270;7.956;2024-03-02T04:38:12;100129.81;;;5.27;94.10
64298;BME280;50639;53.270;7.956;2024-03-02T04:40:37;100128.00;;;5.29;93.47
64298;BME280;50639;53.270;7.956;2024-03-02T04:43:03;100135.16;;;5.23;93.92
64298;BME280;50639;53.270;7.956;2024-03-02T04:45:29;100139.47;;;5.22;93.95
64298;BME280;50639;53.270;7.956;2024-03-02T04:47:54;100140.22;;;5.24;93.46
64298;BME280;50639;53.270;7.956;2024-03-02T04:50:20;100141.28;;;5.20;93.79
64298;BME280;50639;53.270;7.956;2024-03-02T04:52:45;100140.44;;;5.20;93.81
64298;BME280;50639;53.270;7.956;2024-03-02T04:55:10;100145.56;;;5.20;93.98
64298;BME280;50639;53.270;7.956;2024-03-02T04:57:36;100148.25;;;5.18;94.39
64298;BME280;50639;53.270;7.956;2024-03-02T05:00:01;100150.94;;;5.15;94.40
64298;BME280;50639;53.270;7.956;2024-03-02T05:02:27;100145.75;;;5.17;93.91
64298;BME280;50639;53.270;7.956;2024-03-02T05:04:52;100148.44;;;5.14;93.79
64298;BME280;50639;53.270;7.956;2024-03-02T05:07:17;100152.09;;;5.10;94.37
64298;BME280;50639;53.270;7.956;2024-03-02T05:09:43;100158.84;;;5.11;94.35
64298;BME280;50639;53.270;7.956;2024-03-02T05:12:10;100154.50;;;5.13;94.14
64298;BME280;50639;53.270;7.956;2024-03-02T05:14:38;100160.69;;;5.09;94.42
64298;BME280;50639;53.270;7.956;2024-03-02T05:17:04;100151.47;;;5.05;94.14
64298;BME280;50639;53.270;7.956;2024-03-02T05:19:30;100150.56;;;5.06;94.23
64298;BME280;50639;53.270;7.956;2024-03-02T05:21:55;100149.97;;;5.01;95.32
64298;BME280;50639;53.270;7.956;2024-03-02T05:24:20;100148.91;;;5.05;94.47
64298;BME280;50639;53.270;7.956;2024-03-02T05:26:46;100150.03;;;4.99;94.39
64298;BME280;50639;53.270;7.956;2024-03-02T05:29:11;100146.63;;;4.99;95.05
64298;BME280;50639;53.270;7.956;2024-03-02T05:31:37;100158.00;;;4.93;95.04
64298;BME280;50639;53.270;7.956;2024-03-02T05:34:02;100143.31;;;4.97;94.55
64298;BME280;50639;53.270;7.956;2024-03-02T05:36:28;100157.81;;;4.98;95.43
64298;BME280;50639;53.270;7.956;2024-03-02T05:38:54;100142.63;;;4.93;95.22
64298;BME280;50639;53.270;7.956;2024-03-02T05:41:20;100149.28;;;4.97;95.44
64298;BME280;50639;53.270;7.956;2024-03-02T05:43:46;100145.88;;;4.97;95.30
64298;BME280;50639;53.270;7.956;2024-03-02T05:46:11;100145.81;;;4.98;94.63
64298;BME280;50639;53.270;7.956;2024-03-02T05:48:37;100158.00;;;4.93;95.42
64298;BME280;50639;53.270;7.956;2024-03-02T05:51:02;100165.94;;;4.88;95.42
64298;BME280;50639;53.270;7.956;2024-03-02T05:53:28;100169.41;;;4.87;95.82
64298;BME280;50639;53.270;7.956;2024-03-02T05:55:53;100162.31;;;4.92;95.90
64298;BME280;50639;53.270;7.956;2024-03-02T05:58:21;100169.09;;;4.93;95.48
64298;BME280;50639;53.270;7.956;2024-03-02T06:01:06;100165.69;;;4.93;95.83
64298;BME280;50639;53.270;7.956;2024-03-02T06:03:32;100174.22;;;4.93;95.58
64298;BME280;50639;53.270;7.956;2024-03-02T06:05:57;100190.41;;;4.96;96.25
64298;BME280;50639;53.270;7.956;2024-03-02T06:08:22;100177.69;;;4.92;95.47
64298;BME280;50639;53.270;7.956;2024-03-02T06:10:48;100180.19;;;4.94;95.88
64298;BME280;50639;53.270;7.956;2024-03-02T06:13:14;100179.53;;;4.90;95.90
64298;BME280;50639;53.270;7.956;2024-03-02T06:15:39;100183.91;;;4.88;95.73
64298;BME280;50639;53.270;7.956;2024-03-02T06:18:05;100192.63;;;4.84;96.07
64298;BME280;50639;53.270;7.956;2024-03-02T06:20:31;100191.66;;;4.87;96.01
64298;BME280;50639;53.270;7.956;2024-03-02T06:22:57;100190.69;;;4.89;96.25
64298;BME280;50639;53.270;7.956;2024-03-02T06:25:22;100181.25;;;4.90;96.94
64298;BME280;50639;53.270;7.956;2024-03-02T06:27:48;100187.91;;;4.94;96.37
64298;BME280;50639;53.270;7.956;2024-03-02T06:30:13;100191.47;;;4.91;96.19
64298;BME280;50639;53.270;7.956;2024-03-02T06:32:39;100199.81;;;4.95;96.68
64298;BME280;50639;53.270;7.956;2024-03-02T06:35:04;100197.44;;;4.92;95.91
64298;BME280;50639;53.270;7.956;2024-03-02T06:37:32;100205.03;;;4.93;96.20
64298;BME280;50639;53.270;7.956;2024-03-02T06:39:57;100201.63;;;4.93;96.47
64298;BME280;50639;53.270;7.956;2024-03-02T06:42:23;100205.78;;;4.96;96.39
64298;BME280;50639;53.270;7.956;2024-03-02T06:44:49;100206.56;;;4.98;96.36
64298;BME280;50639;53.270;7.956;2024-03-02T06:47:15;100202.94;;;5.02;96.26
64298;BME280;50639;53.270;7.956;2024-03-02T06:49:42;100214.78;;;5.04;96.36
64298;BME280;50639;53.270;7.956;2024-03-02T06:52:08;100211.25;;;5.07;95.97
64298;BME280;50639;53.270;7.956;2024-03-02T06:54:33;100215.75;;;5.02;96.33
64298;BME280;50639;53.270;7.956;2024-03-02T06:57:00;100215.94;;;4.99;96.38
64298;BME280;50639;53.270;7.956;2024-03-02T06:59:25;100218.31;;;5.02;96.26
64298;BME280;50639;53.270;7.956;2024-03-02T07:01:51;100226.25;;;4.97;97.03
64298;BME280;50639;53.270;7.956;2024-03-02T07:04:16;100223.63;;;4.99;96.17
64298;BME280;50639;53.270;7.956;2024-03-02T07:06:41;100220.00;;;5.03;96.29
64298;BME280;50639;53.270;7.956;2024-03-02T07:09:07;100228.31;;;5.08;96.26
64298;BME280;50639;53.270;7.956;2024-03-02T07:11:36;100226.41;;;5.11;96.59
64298;BME280;50639;53.270;7.956;2024-03-02T07:14:01;100224.69;;;5.12;95.76
64298;BME280;50639;53.270;7.956;2024-03-02T07:16:27;100236.69;;;5.11;95.98
64298;BME280;50639;53.270;7.956;2024-03-02T07:18:58;100227.00;;;5.18;96.59
64298;BME280;50639;53.270;7.956;2024-03-02T07:21:24;100233.25;;;5.29;96.18
64298;BME280;50639;53.270;7.956;2024-03-02T07:23:50;100238.19;;;5.34;96.40
64298;BME280;50639;53.270;7.956;2024-03-02T07:26:16;100232.66;;;5.42;95.75
64298;BME280;50639;53.270;7.956;2024-03-02T07:28:43;100240.97;;;5.47;95.90
64298;BME280;50639;53.270;7.956;2024-03-02T07:31:09;100229.41;;;5.55;95.25
64298;BME280;50639;53.270;7.956;2024-03-02T07:33:35;100233.28;;;5.64;95.50
64298;BME280;50639;53.270;7.956;2024-03-02T07:36:00;100229.72;;;5.66;95.39
64298;BME280;50639;53.270;7.956;2024-03-02T07:38:27;100231.16;;;5.72;95.98
64298;BME280;50639;53.270;7.956;2024-03-02T07:40:53;100224.72;;;5.81;94.76
64298;BME280;50639;53.270;7.956;2024-03-02T07:43:19;100234.72;;;5.87;95.33
64298;BME280;50639;53.270;7.956;2024-03-02T07:45:48;100237.91;;;5.92;95.29
64298;BME280;50639;53.270;7.956;2024-03-02T07:48:14;100240.06;;;5.99;95.22
64298;BME280;50639;53.270;7.956;2024-03-02T07:50:40;100245.66;;;6.08;94.44
64298;BME280;50639;53.270;7.956;2024-03-02T07:53:05;100252.25;;;6.13;94.47
64298;BME280;50639;53.270;7.956;2024-03-02T07:55:32;100249.34;;;6.19;94.33
64298;BME280;50639;53.270;7.956;2024-03-02T07:57:58;100249.38;;;6.35;94.85
64298;BME280;50639;53.270;7.956;2024-03-02T08:00:24;100255.50;;;6.50;94.88
64298;BME280;50639;53.270;7.956;2024-03-02T08:02:51;100252.44;;;6.59;93.95
64298;BME280;50639;53.270;7.956;2024-03-02T08:05:17;100250.59;;;6.61;93.28
64298;BME280;50639;53.270;7.956;2024-03-02T08:07:46;100258.22;;;6.62;93.33
64298;BME280;50639;53.270;7.956;2024-03-02T08:10:13;100261.28;;;6.69;93.31
64298;BME280;50639;53.270;7.956;2024-03-02T08:12:38;100260.16;;;6.74;92.44
64298;BME280;50639;53.270;7.956;2024-03-02T08:15:04;100271.94;;;6.78;92.75
64298;BME280;50639;53.270;7.956;2024-03-02T08:17:30;100275.75;;;6.87;92.46
64298;BME280;50639;53.270;7.956;2024-03-02T08:19:56;100277.00;;;6.96;91.57
64298;BME280;50639;53.270;7.956;2024-03-02T08:22:22;100273.44;;;6.98;91.81
64298;BME280;50639;53.270;7.956;2024-03-02T08:24:48;100276.63;;;7.03;91.15
64298;BME280;50639;53.270;7.956;2024-03-02T08:27:13;100276.44;;;7.06;91.47
64298;BME280;50639;53.270;7.956;2024-03-02T08:29:40;100279.25;;;7.17;91.22
64298;BME280;50639;53.270;7.956;2024-03-02T08:32:06;100285.88;;;7.22;90.63
64298;BME280;50639;53.270;7.956;2024-03-02T08:34:32;100285.47;;;7.29;90.66
64298;BME280;50639;53.270;7.956;2024-03-02T08:36:59;100281.66;;;7.36;91.11
64298;BME280;50639;53.270;7.956;2024-03-02T08:39:24;100283.78;;;7.44;90.16
64298;BME280;50639;53.270;7.956;2024-03-02T08:41:50;100280.69;;;7.53;90.53
64298;BME280;50639;53.270;7.956;2024-03-02T08:44:16;100282.56;;;7.65;89.86
64298;BME280;50639;53.270;7.956;2024-03-02T08:46:41;100289.78;;;7.74;89.57
64298;BME280;50639;53.270;7.956;2024-03-02T08:49:07;100295.69;;;7.76;89.26
64298;BME280;50639;53.270;7.956;2024-03-02T08:51:33;100295.00;;;7.88;89.11
64298;BME280;50639;53.270;7.956;2024-03-02T08:53:58;100302.56;;;7.91;88.60
64298;BME280;50639;53.270;7.956;2024-03-02T08:56:24;100303.66;;;8.02;88.29
64298;BME280;50639;53.270;7.956;2024-03-02T08:58:51;100304.78;;;8.12;87.94
64298;BME280;50639;53.270;7.956;2024-03-02T09:01:17;100302.97;;;8.14;87.53
64298;BME280;50639;53.270;7.956;2024-03-02T09:03:43;100311.06;;;8.22;87.58
64298;BME280;50639;53.270;7.956;2024-03-02T09:06:10;100310.19;;;8.37;87.31
64298;BME280;50639;53.270;7.956;2024-03-02T09:08:36;100311.84;;;8.38;86.37
64298;BME280;50639;53.270;7.956;2024-03-02T09:11:03;100314.63;;;8.49;86.45
64298;BME280;50639;53.270;7.956;2024-03-02T09:13:29;100319.50;;;8.54;85.86
64298;BME280;50639;53.270;7.956;2024-03-02T09:15:54;100314.53;;;8.65;86.27
64298;BME280;50639;53.270;7.956;2024-03-02T09:18:20;100327.06;;;8.71;85.77
64298;BME280;50639;53.270;7.956;2024-03-02T09:20:45;100318.88;;;8.79;85.31
64298;BME280;50639;53.270;7.956;2024-03-02T09:23:11;100316.75;;;8.85;84.11
64298;BME280;50639;53.270;7.956;2024-03-02T09:25:37;100326.50;;;8.94;83.77
64298;BME280;50639;53.270;7.956;2024-03-02T09:28:02;100319.75;;;9.06;83.51
64298;BME280;50639;53.270;7.956;2024-03-02T09:30:28;100319.56;;;9.09;82.11
64298;BME280;50639;53.270;7.956;2024-03-02T09:32:54;100322.50;;;9.17;82.80
64298;BME280;50639;53.270;7.956;2024-03-02T09:35:19;100320.47;;;9.22;82.83
64298;BME280;50639;53.270;7.956;2024-03-02T09:37:45;100317.75;;;9.24;82.16
64298;BME280;50639;53.270;7.956;2024-03-02T09:40:11;100317.00;;;9.36;82.42
64298;BME280;50639;53.270;7.956;2024-03-02T09:42:37;100316.72;;;9.40;81.71
64298;BME280;50639;53.270;7.956;2024-03-02T09:45:03;100318.22;;;9.57;81.52
64298;BME280;50639;53.270;7.956;2024-03-02T09:47:28;100323.28;;;9.59;81.27
64298;BME280;50639;53.270;7.956;2024-03-02T09:49:54;100320.94;;;9.68;81.36
64298;BME280;50639;53.270;7.956;2024-03-02T09:52:22;100318.75;;;10.02;84.04
64298;BME280;50639;53.270;7.956;2024-03-02T09:54:48;100307.16;;;10.07;80.93
64298;BME280;50639;53.270;7.956;2024-03-02T09:57:14;100303.56;;;10.23;80.66
64298;BME280;50639;53.270;7.956;2024-03-02T09:59:39;100299.41;;;10.58;81.71
64298;BME280;50639;53.270;7.956;2024-03-02T10:02:05;100312.06;;;10.50;78.75
64298;BME280;50639;53.270;7.956;2024-03-02T10:04:33;100306.91;;;10.37;77.90
64298;BME280;50639;53.270;7.956;2024-03-02T10:07:15;100305.44;;;10.33;77.85
64298;BME280;50639;53.270;7.956;2024-03-02T10:09:43;100303.59;;;10.35;77.78
64298;BME280;50639;53.270;7.956;2024-03-02T10:12:09;100299.88;;;10.27;77.42
64298;BME280;50639;53.270;7.956;2024-03-02T10:14:37;100303.19;;;10.29;77.21
64298;BME280;50639;53.270;7.956;2024-03-02T10:17:04;100304.81;;;10.30;77.67
64298;BME280;50639;53.270;7.956;2024-03-02T10:19:30;100313.53;;;10.41;78.00
64298;BME280;50639;53.270;7.956;2024-03-02T10:22:01;100310.72;;;10.44;77.13
64298;BME280;50639;53.270;7.956;2024-03-02T10:24:28;100305.44;;;10.59;77.18
64298;BME280;50639;53.270;7.956;2024-03-02T10:26:59;100308.34;;;10.54;76.99
64298;BME280;50639;53.270;7.956;2024-03-02T10:29:25;100310.31;;;10.63;76.80
64298;BME280;50639;53.270;7.956;2024-03-02T10:31:54;100309.53;;;10.74;75.79
64298;BME280;50639;53.270;7.956;2024-03-02T10:34:19;100304.78;;;10.80;75.70
64298;BME280;50639;53.270;7.956;2024-03-02T10:36:46;100295.84;;;10.84;75.65
64298;BME280;50639;53.270;7.956;2024-03-02T10:39:13;100288.38;;;10.92;75.28
64298;BME280;50639;53.270;7.956;2024-03-02T10:41:40;100290.03;;;10.93;73.73
64298;BME280;50639;53.270;7.956;2024-03-02T10:44:07;100286.50;;;10.94;74.12
64298;BME280;50639;53.270;7.956;2024-03-02T10:46:34;100286.41;;;10.96;73.79
64298;BME280;50639;53.270;7.956;2024-03-02T10:49:01;100289.38;;;11.03;72.88
64298;BME280;50639;53.270;7.956;2024-03-02T10:51:29;100292.38;;;11.09;73.78
64298;BME280;50639;53.270;7.956;2024-03-02T10:53:57;100289.94;;;11.19;73.84
64298;BME280;50639;53.270;7.956;2024-03-02T10:56:49;100292.25;;;11.11;73.72
64298;BME280;50639;53.270;7.956;2024-03-02T11:01:56;100292.22;;;11.23;73.09
64298;BME280;50639;53.270;7.956;2024-03-02T11:04:26;100300.09;;;11.22;72.96
64298;BME280;50639;53.270;7.956;2024-03-02T11:06:56;100296.25;;;11.27;73.94
64298;BME280;50639;53.270;7.956;2024-03-02T11:09:27;100304.91;;;11.39;73.70
64298;BME280;50639;53.270;7.956;2024-03-02T11:12:00;100304.25;;;11.48;73.00
64298;BME280;50639;53.270;7.956;2024-03-02T11:14:30;100308.59;;;11.48;71.84
64298;BME280;50639;53.270;7.956;2024-03-02T11:16:56;100301.88;;;11.45;71.50
64298;BME280;50639;53.270;7.956;2024-03-02T11:19:22;100308.06;;;11.55;72.20
64298;BME280;50639;53.270;7.956;2024-03-02T11:21:48;100305.97;;;11.60;72.07
64298;BME280;50639;53.270;7.956;2024-03-02T11:27:05;100311.03;;;11.86;71.63
64298;BME280;50639;53.270;7.956;2024-03-02T11:32:02;100310.94;;;11.98;70.73
64298;BME280;50639;53.270;7.956;2024-03-02T11:34:34;100311.88;;;11.97;70.54
64298;BME280;50639;53.270;7.956;2024-03-02T11:37:04;100312.25;;;11.93;69.97
64298;BME280;50639;53.270;7.956;2024-03-02T11:39:30;100306.00;;;11.95;70.14
64298;BME280;50639;53.270;7.956;2024-03-02T11:41:56;100304.59;;;12.02;70.20
64298;BME280;50639;53.270;7.956;2024-03-02T11:44:24;100301.13;;;11.91;70.42
64298;BME280;50639;53.270;7.956;2024-03-02T11:46:59;100299.97;;;11.95;70.64
64298;BME280;50639;53.270;7.956;2024-03-02T11:49:53;100298.06;;;11.97;70.38
64298;BME280;50639;53.270;7.956;2024-03-02T11:52:20;100308.72;;;11.94;69.76
64298;BME280;50639;53.270;7.956;2024-03-02T11:54:47;100302.13;;;12.01;69.88
64298;BME280;50639;53.270;7.956;2024-03-02T11:57:13;100302.13;;;12.01;68.79
64298;BME280;50639;53.270;7.956;2024-03-02T11:59:43;100300.25;;;12.03;69.29
64298;BME280;50639;53.270;7.956;2024-03-02T12:02:19;100286.19;;;12.05;69.75
64298;BME280;50639;53.270;7.956;2024-03-02T12:04:46;100291.28;;;12.18;69.10
64298;BME280;50639;53.270;7.956;2024-03-02T12:07:18;100294.03;;;12.39;69.80
64298;BME280;50639;53.270;7.956;2024-03-02T12:09:45;100295.34;;;12.44;68.30
64298;BME280;50639;53.270;7.956;2024-03-02T12:12:10;100300.75;;;12.41;67.91
64298;BME280;50639;53.270;7.956;2024-03-02T12:14:38;100299.34;;;12.37;67.91
64298;BME280;50639;53.270;7.956;2024-03-02T12:17:05;100296.50;;;12.52;68.81
64298;BME280;50639;53.270;7.956;2024-03-02T12:19:31;100306.88;;;12.18;67.62
64298;BME280;50639;53.270;7.956;2024-03-02T12:21:57;100299.06;;;12.18;68.62
64298;BME280;50639;53.270;7.956;2024-03-02T12:24:23;100292.47;;;12.25;68.50
64298;BME280;50639;53.270;7.956;2024-03-02T12:26:50;100284.81;;;12.35;68.57
64298;BME280;50639;53.270;7.956;2024-03-02T12:29:16;100290.25;;;12.43;68.34
64298;BME280;50639;53.270;7.956;2024-03-02T12:31:42;100287.31;;;12.48;67.27
64298;BME280;50639;53.270;7.956;2024-03-02T12:34:12;100286.84;;;12.54;67.42
64298;BME280;50639;53.270;7.956;2024-03-02T12:36:39;100274.78;;;12.53;67.52
64298;BME280;50639;53.270;7.956;2024-03-02T12:39:04;100289.78;;;12.60;68.22
64298;BME280;50639;53.270;7.956;2024-03-02T12:41:30;100295.47;;;12.65;67.10
64298;BME280;50639;53.270;7.956;2024-03-02T12:43:56;100290.72;;;12.70;67.29
64298;BME280;50639;53.270;7.956;2024-03-02T12:46:21;100287.88;;;12.85;67.03
64298;BME280;50639;53.270;7.956;2024-03-02T12:48:47;100291.06;;;12.88;67.42
64298;BME280;50639;53.270;7.956;2024-03-02T12:51:12;100287.75;;;12.86;67.28
64298;BME280;50639;53.270;7.956;2024-03-02T12:53:38;100287.75;;;12.86;68.20
64298;BME280;50639;53.270;7.956;2024-03-02T12:56:04;100286.81;;;12.76;67.47
64298;BME280;50639;53.270;7.956;2024-03-02T12:58:38;100292.50;;;12.81;67.68
64298;BME280;50639;53.270;7.956;2024-03-02T13:01:06;100285.75;;;12.67;66.63
64298;BME280;50639;53.270;7.956;2024-03-02T13:03:34;100290.13;;;12.67;67.59